Three Rivers, Michigan
Current Conditions -  °F | °C
As of 9:34 AM on Sunday 23 Nov 2014 (Local Time) from KHAI Reporting Station
Unknown Precip Unknown Precip  
Wind Chill: 43°   Ceiling: 6500
Heat Index: 47°   Visibility: 10mi
Dew Point: 44°   Wind: 9mph
Humidity: 88%   Direction: 170°S
Pressure: 29.85"   Gusts: NA
Location:  41.94°N, 85.64°W
Report Text: KHAI 231434Z AUTO 17008KT 10SM UP SCT036 BKN065 OVC085 09/07 A2985 RMK AO2 T00850067
Loading
Personal Weather Stations






























Interactive Weather Map New forecast layout! Learn more

10-Day Weather Forecast

Advertisements
Track Severe Weather on mobile